Time;durP1;ratioP1;P1;durP2;ratioP2;P2;SDS_P1;SDS_P2;PMS_P1;PMS_P2;Temp;Humidity;BMP_temperature;BMP_pressure;BME280_temperature;BME280_humidity;BME280_pressure;Samples;Min_cycle;Max_cycle;Signal;HPM_P1;HPM_P2
2022/08/09 00:00:20;;;;;;;4.93;3.72;;;15.20;97.40;;;;;;5089440;28;20056;-60
2022/08/09 00:02:46;;;;;;;7.60;3.60;;;15.30;97.60;;;;;;5070780;28;20028;-60
2022/08/09 00:05:11;;;;;;;4.90;3.60;;;15.20;98.10;;;;;;5081446;28;20043;-60
2022/08/09 00:07:37;;;;;;;5.13;3.50;;;15.20;98.40;;;;;;5079759;28;20380;-60
2022/08/09 00:10:03;;;;;;;7.20;3.92;;;15.10;98.90;;;;;;5088723;28;20485;-60
2022/08/09 00:12:29;;;;;;;8.63;3.72;;;15.00;99.60;;;;;;5088884;28;20059;-60
2022/08/09 00:14:56;;;;;;;5.13;3.75;;;15.00;99.80;;;;;;5086447;28;20495;-60
2022/08/09 00:17:21;;;;;;;5.35;3.83;;;15.00;99.70;;;;;;5074601;28;20041;-60
2022/08/09 00:19:47;;;;;;;4.07;3.28;;;15.10;99.70;;;;;;5087287;28;20060;-60
2022/08/09 00:22:13;;;;;;;6.95;3.33;;;15.20;99.60;;;;;;5086169;28;20074;-60
2022/08/09 00:24:38;;;;;;;4.22;3.60;;;15.20;99.50;;;;;;5092198;28;20458;-60
2022/08/09 00:27:06;;;;;;;5.95;3.67;;;15.20;99.70;;;;;;5088387;28;20114;-60
2022/08/09 00:29:31;;;;;;;4.95;3.60;;;15.10;99.90;;;;;;5084995;28;20089;-60
2022/08/09 00:31:57;;;;;;;7.80;4.10;;;15.00;99.90;;;;;;5087646;28;20031;-60
2022/08/09 00:34:22;;;;;;;8.32;3.75;;;15.00;99.90;;;;;;5089058;28;20032;-60
2022/08/09 00:36:48;;;;;;;5.82;3.67;;;14.90;99.90;;;;;;5088315;28;20054;-60
2022/08/09 00:39:14;;;;;;;7.55;4.30;;;14.80;99.90;;;;;;5077981;28;20040;-60
2022/08/09 00:41:40;;;;;;;6.82;3.67;;;14.70;99.90;;;;;;5090926;28;20107;-60
2022/08/09 00:44:06;;;;;;;5.00;3.70;;;14.80;99.90;;;;;;5087042;28;20074;-60
2022/08/09 00:46:31;;;;;;;6.53;3.70;;;14.80;99.90;;;;;;5072479;28;20033;-60
2022/08/09 00:48:57;;;;;;;4.55;3.72;;;14.80;99.90;;;;;;5071115;28;20032;-60
2022/08/09 00:51:23;;;;;;;6.35;4.20;;;14.60;99.90;;;;;;5078479;28;20478;-60
2022/08/09 00:53:49;;;;;;;6.82;3.90;;;14.50;99.90;;;;;;5089436;28;20028;-60
2022/08/09 00:56:15;;;;;;;9.60;3.63;;;14.60;99.90;;;;;;5076209;28;20050;-60
2022/08/09 00:58:41;;;;;;;4.90;3.85;;;14.60;99.90;;;;;;5086016;28;20034;-60
2022/08/09 01:01:32;;;;;;;5.80;4.13;;;14.50;99.90;;;;;;5087099;28;20028;-60
2022/08/09 01:04:07;;;;;;;4.78;3.80;;;14.50;99.90;;;;;;5088176;28;20086;-60
2022/08/09 01:06:47;;;;;;;6.88;3.90;;;14.30;99.90;;;;;;5080277;28;20028;-60
2022/08/09 01:09:36;;;;;;;8.65;3.92;;;14.20;99.90;;;;;;5080745;28;20043;-60
2022/08/09 01:12:19;;;;;;;7.80;4.30;;;14.20;99.90;;;;;;5088328;28;20386;-60
2022/08/09 01:14:53;;;;;;;10.52;4.15;;;14.20;99.90;;;;;;5073947;28;20490;-60
2022/08/09 01:17:26;;;;;;;4.75;3.83;;;14.30;99.90;;;;;;5069336;28;20115;-60
2022/08/09 01:19:59;;;;;;;9.82;4.35;;;14.30;99.90;;;;;;5084665;28;20097;-60
2022/08/09 01:22:31;;;;;;;4.97;3.95;;;14.30;99.90;;;;;;5083386;28;20081;-60
2022/08/09 01:25:27;;;;;;;5.35;4.00;;;14.20;99.90;;;;;;5088036;28;20513;-60
2022/08/09 01:27:55;;;;;;;6.95;4.10;;;14.10;99.90;;;;;;5088093;28;20048;-60
2022/08/09 01:30:24;;;;;;;5.00;4.28;;;14.00;99.90;;;;;;5088872;28;20028;-60
2022/08/09 01:32:52;;;;;;;4.95;3.90;;;13.90;99.90;;;;;;5070163;28;20048;-60
2022/08/09 01:35:35;;;;;;;5.75;4.30;;;14.00;99.90;;;;;;5071229;28;20028;-60
2022/08/09 01:38:05;;;;;;;7.82;4.30;;;14.00;99.90;;;;;;5091157;28;20462;-60
2022/08/09 01:40:34;;;;;;;5.53;4.15;;;14.00;99.90;;;;;;5085912;28;20420;-59
2022/08/09 01:43:00;;;;;;;6.13;4.10;;;13.90;99.90;;;;;;5083143;28;20104;-60
2022/08/09 01:45:27;;;;;;;8.02;4.15;;;14.00;99.90;;;;;;5086320;28;20025;-60
2022/08/09 01:47:55;;;;;;;5.88;4.15;;;14.10;99.90;;;;;;5068025;28;20021;-60
2022/08/09 01:50:25;;;;;;;6.43;4.32;;;14.00;99.90;;;;;;5069207;28;20032;-60
2022/08/09 01:52:51;;;;;;;6.18;4.45;;;13.90;99.90;;;;;;5088268;28;20063;-60
2022/08/09 01:55:18;;;;;;;7.57;4.35;;;13.90;99.90;;;;;;5087677;28;20497;-60
2022/08/09 01:57:46;;;;;;;8.70;4.50;;;13.90;99.90;;;;;;5080428;28;20063;-60
2022/08/09 02:00:13;;;;;;;7.32;4.55;;;13.90;99.90;;;;;;5085393;28;20110;-60
2022/08/09 02:02:42;;;;;;;10.52;4.57;;;14.00;99.90;;;;;;5078631;28;20545;-60
2022/08/09 02:05:11;;;;;;;5.88;4.63;;;14.00;99.90;;;;;;5080346;28;20036;-60
2022/08/09 02:07:43;;;;;;;5.90;4.15;;;14.10;99.90;;;;;;5091807;28;20040;-60
2022/08/09 02:10:14;;;;;;;7.88;4.28;;;13.90;99.90;;;;;;5081472;28;20608;-60
2022/08/09 02:12:41;;;;;;;7.75;4.28;;;13.80;99.90;;;;;;5078248;28;20039;-60
2022/08/09 02:15:08;;;;;;;7.00;4.45;;;13.80;99.90;;;;;;5078545;28;20105;-60
2022/08/09 02:17:34;;;;;;;9.07;4.40;;;13.80;99.90;;;;;;5087116;28;20052;-60
2022/08/09 02:20:00;;;;;;;7.00;4.43;;;13.70;99.90;;;;;;5083693;28;20039;-60
2022/08/09 02:22:41;;;;;;;7.70;4.10;;;13.60;99.90;;;;;;5081809;28;20059;-60
2022/08/09 02:25:11;;;;;;;6.03;4.20;;;13.60;99.90;;;;;;5073044;28;20028;-60
2022/08/09 02:27:41;;;;;;;7.82;4.47;;;13.50;99.90;;;;;;5075463;28;20491;-60
2022/08/09 02:30:08;;;;;;;6.07;4.13;;;13.50;99.90;;;;;;5085535;28;20841;-61
2022/08/09 02:32:40;;;;;;;6.00;4.20;;;13.40;99.90;;;;;;5082578;28;20071;-60
2022/08/09 02:35:09;;;;;;;6.88;4.25;;;13.30;99.90;;;;;;5087789;28;20391;-60
2022/08/09 02:37:37;;;;;;;6.72;4.47;;;13.30;99.90;;;;;;5095182;28;20048;-60
2022/08/09 02:40:08;;;;;;;7.60;4.60;;;13.40;99.90;;;;;;5088195;28;20707;-61
2022/08/09 02:42:35;;;;;;;;;;;13.40;99.90;;;;;;5101352;28;20081;-60
2022/08/09 02:45:12;;;;;;;6.45;4.75;;;13.60;99.90;;;;;;5081427;28;19934;-60
2022/08/09 02:47:40;;;;;;;8.50;4.80;;;13.70;99.90;;;;;;5084033;28;20035;-60
2022/08/09 02:50:10;;;;;;;7.47;4.88;;;13.70;99.90;;;;;;5092878;28;20036;-60
2022/08/09 02:52:45;;;;;;;10.48;4.68;;;13.70;99.90;;;;;;5079848;28;20123;-60
2022/08/09 02:55:11;;;;;;;7.07;4.72;;;13.60;99.90;;;;;;5071460;28;20077;-60
2022/08/09 02:57:39;;;;;;;5.53;4.15;;;13.60;99.90;;;;;;5085610;28;20024;-60
2022/08/09 03:00:10;;;;;;;8.32;4.53;;;13.60;99.90;;;;;;5089236;28;20052;-60
2022/08/09 03:02:37;;;;;;;;;;;13.60;99.90;;;;;;5089538;28;20074;-60
2022/08/09 03:05:04;;;;;;;5.75;4.10;;;13.60;99.90;;;;;;5090381;28;19947;-60
2022/08/09 03:07:31;;;;;;;5.32;4.22;;;13.60;99.90;;;;;;5083933;28;20029;-60
2022/08/09 03:09:59;;;;;;;5.30;4.47;;;13.60;99.90;;;;;;5089464;28;20067;-60
2022/08/09 03:12:26;;;;;;;7.72;4.40;;;13.70;99.90;;;;;;5071593;28;20043;-60
2022/08/09 03:14:53;;;;;;;6.78;4.63;;;13.70;99.90;;;;;;5082156;28;20713;-60
2022/08/09 03:17:20;;;;;;;8.43;5.00;;;13.70;99.90;;;;;;5090190;28;20031;-60
2022/08/09 03:19:46;;;;;;;6.00;4.80;;;13.60;99.90;;;;;;5092211;28;20032;-60
2022/08/09 03:22:14;;;;;;;6.13;4.60;;;13.50;99.90;;;;;;5089726;28;20036;-60
2022/08/09 03:24:39;;;;;;;6.53;4.90;;;13.40;99.90;;;;;;5091903;28;20140;-60
2022/08/09 03:27:08;;;;;;;7.13;4.43;;;13.40;99.90;;;;;;5091375;28;20478;-60
2022/08/09 03:29:35;;;;;;;7.82;4.40;;;13.30;99.90;;;;;;5090819;28;20032;-60
2022/08/09 03:32:02;;;;;;;8.93;4.50;;;13.20;99.90;;;;;;5091140;28;20085;-60
2022/08/09 03:34:28;;;;;;;7.53;4.72;;;13.10;99.90;;;;;;5091501;28;20037;-60
2022/08/09 03:36:56;;;;;;;5.82;4.25;;;13.10;99.90;;;;;;5093142;28;20039;-60
2022/08/09 03:39:24;;;;;;;6.22;4.43;;;13.20;99.90;;;;;;5085418;28;20138;-60
2022/08/09 03:41:50;;;;;;;6.53;4.35;;;13.10;99.90;;;;;;5093630;28;20039;-60
2022/08/09 03:44:16;;;;;;;5.88;4.63;;;13.10;99.90;;;;;;5073166;28;20036;-60
2022/08/09 03:46:42;;;;;;;8.43;4.72;;;13.00;99.90;;;;;;5089599;28;20032;-60
2022/08/09 03:49:08;;;;;;;9.80;4.20;;;12.90;99.90;;;;;;5090794;28;20040;-60
2022/08/09 03:51:35;;;;;;;6.07;4.45;;;12.90;99.90;;;;;;5087355;28;20024;-60
2022/08/09 03:54:02;;;;;;;5.85;4.80;;;12.80;99.90;;;;;;5090941;28;20035;-60
2022/08/09 03:56:27;;;;;;;6.82;4.60;;;12.80;99.90;;;;;;5089424;28;20059;-60
2022/08/09 03:58:53;;;;;;;6.57;4.63;;;12.80;99.90;;;;;;5090734;28;20463;-60
2022/08/09 04:01:19;;;;;;;7.05;5.00;;;12.80;99.90;;;;;;5088944;28;20465;-60
2022/08/09 04:03:46;;;;;;;8.63;4.93;;;12.90;99.90;;;;;;5090758;28;20043;-60
2022/08/09 04:06:12;;;;;;;6.50;4.65;;;12.90;99.90;;;;;;5090130;28;20607;-60
2022/08/09 04:08:37;;;;;;;6.72;5.10;;;12.80;99.90;;;;;;5091181;28;20067;-60
2022/08/09 04:11:04;;;;;;;6.43;5.10;;;12.60;99.90;;;;;;5084148;28;20154;-61
2022/08/09 04:13:30;;;;;;;9.82;5.93;;;12.70;99.90;;;;;;5071592;28;20445;-60
2022/08/09 04:15:55;;;;;;;7.15;5.65;;;12.50;99.90;;;;;;5083499;28;20032;-60
2022/08/09 04:18:21;;;;;;;9.13;6.13;;;12.40;99.90;;;;;;5088575;28;20052;-60
2022/08/09 04:20:47;;;;;;;10.57;5.60;;;12.40;99.90;;;;;;5089916;28;20040;-60
2022/08/09 04:23:12;;;;;;;8.82;5.60;;;12.30;99.90;;;;;;5090111;28;20031;-60
2022/08/09 04:25:38;;;;;;;8.13;5.80;;;12.40;99.90;;;;;;5093403;28;20112;-60
2022/08/09 04:28:04;;;;;;;9.10;6.10;;;12.40;99.90;;;;;;5091890;28;20038;-60
2022/08/09 04:30:30;;;;;;;8.27;5.68;;;12.40;99.90;;;;;;5085259;28;20437;-60
2022/08/09 04:32:56;;;;;;;9.88;5.93;;;12.40;99.90;;;;;;5085939;28;20218;-60
2022/08/09 04:35:21;;;;;;;8.60;6.07;;;12.40;99.90;;;;;;5088387;28;20118;-60
2022/08/09 04:37:48;;;;;;;8.43;5.90;;;12.50;99.90;;;;;;5090516;28;20101;-60
2022/08/09 04:40:14;;;;;;;8.73;5.88;;;12.50;99.90;;;;;;5089361;28;20032;-61
2022/08/09 04:42:39;;;;;;;8.23;5.82;;;12.60;99.90;;;;;;5090479;28;20032;-60
2022/08/09 04:45:06;;;;;;;10.95;5.90;;;12.80;99.90;;;;;;5089911;28;20359;-60
2022/08/09 04:47:31;;;;;;;7.63;5.60;;;12.90;99.90;;;;;;5090095;28;20039;-60
2022/08/09 04:49:57;;;;;;;8.93;6.00;;;13.00;99.90;;;;;;5088862;28;20518;-60
2022/08/09 04:52:25;;;;;;;9.05;6.10;;;13.00;99.90;;;;;;5089310;28;20099;-60
2022/08/09 04:54:51;;;;;;;9.30;6.38;;;13.10;99.90;;;;;;5090216;28;20031;-60
2022/08/09 04:57:17;;;;;;;8.75;5.97;;;13.30;99.90;;;;;;5089109;28;20032;-60
2022/08/09 04:59:43;;;;;;;8.38;6.00;;;13.40;99.90;;;;;;5090353;28;20036;-60
2022/08/09 05:02:09;;;;;;;9.80;6.43;;;13.50;99.90;;;;;;5078203;28;20063;-60
2022/08/09 05:04:35;;;;;;;10.10;5.93;;;13.70;99.90;;;;;;5084642;28;20032;-60
2022/08/09 05:07:01;;;;;;;9.10;6.53;;;13.90;99.90;;;;;;5069965;28;20437;-61
2022/08/09 05:09:29;;;;;;;8.05;5.40;;;14.00;99.90;;;;;;5084421;28;20085;-60
2022/08/09 05:11:55;;;;;;;9.30;6.10;;;14.20;99.90;;;;;;5093487;28;20112;-60
2022/08/09 05:14:21;;;;;;;9.23;5.78;;;14.20;99.90;;;;;;5108129;28;20431;-60
2022/08/09 05:16:46;;;;;;;8.07;5.68;;;14.20;99.90;;;;;;5110056;28;20027;-60
2022/08/09 05:19:13;;;;;;;8.00;5.70;;;14.20;99.90;;;;;;5104030;28;20062;-60
2022/08/09 05:21:40;;;;;;;8.05;5.53;;;14.20;99.90;;;;;;5089760;28;20032;-60
2022/08/09 05:24:05;;;;;;;9.57;5.50;;;14.30;99.90;;;;;;5089524;28;20028;-61
2022/08/09 05:26:32;;;;;;;6.95;5.30;;;14.40;99.90;;;;;;5089376;28;20029;-60
2022/08/09 05:28:57;;;;;;;7.22;5.30;;;14.50;99.90;;;;;;5089672;28;20487;-60
2022/08/09 05:31:23;;;;;;;9.90;5.47;;;14.60;99.90;;;;;;5088608;28;20071;-60
2022/08/09 05:33:49;;;;;;;12.35;5.70;;;14.90;99.90;;;;;;5088245;28;20043;-61
2022/08/09 05:36:14;;;;;;;7.05;5.20;;;15.10;99.90;;;;;;5088912;28;20470;-60
2022/08/09 05:38:40;;;;;;;9.38;5.13;;;15.30;99.90;;;;;;5089575;28;20046;-60
2022/08/09 05:41:06;;;;;;;6.85;5.50;;;15.60;99.90;;;;;;5089449;28;20057;-60
2022/08/09 05:43:34;;;;;;;6.97;5.43;;;15.90;99.90;;;;;;5087511;28;20036;-60
2022/08/09 05:46:03;;;;;;;7.78;5.25;;;16.00;99.90;;;;;;5089087;28;20756;-60
2022/08/09 05:48:28;;;;;;;6.63;5.50;;;16.20;99.90;;;;;;5087777;28;20059;-60
2022/08/09 05:50:54;;;;;;;8.38;5.40;;;16.30;99.90;;;;;;5089500;28;20076;-61
2022/08/09 05:53:20;;;;;;;7.78;5.40;;;16.50;99.90;;;;;;5079806;28;20044;-60
2022/08/09 05:55:46;;;;;;;9.30;6.05;;;16.70;99.90;;;;;;5084667;28;20489;-60
2022/08/09 05:58:11;;;;;;;9.70;5.25;;;16.90;99.90;;;;;;5088450;28;20509;-60
2022/08/09 06:00:37;;;;;;;7.03;5.40;;;17.00;99.90;;;;;;5080819;28;20024;-60
2022/08/09 06:03:03;;;;;;;7.03;5.35;;;17.20;99.90;;;;;;5087222;28;20503;-60
2022/08/09 06:05:33;;;;;;;8.48;5.20;;;17.30;99.90;;;;;;5095322;28;20216;-60
2022/08/09 06:07:59;;;;;;;8.90;5.20;;;17.40;99.90;;;;;;5096017;28;20474;-60
2022/08/09 06:10:36;;;;;;;6.22;4.88;;;17.50;99.90;;;;;;5098330;28;20050;-60
2022/08/09 06:13:12;;;;;;;6.45;4.53;;;17.70;99.90;;;;;;5085642;28;20066;-60
2022/08/09 06:15:38;;;;;;;6.43;4.55;;;17.90;99.90;;;;;;5094303;28;20032;-60
2022/08/09 06:18:04;;;;;;;8.18;4.40;;;18.10;99.90;;;;;;5086674;28;20035;-61
2022/08/09 06:20:31;;;;;;;8.50;4.20;;;18.40;99.90;;;;;;5093690;28;20092;-60
2022/08/09 06:22:57;;;;;;;5.95;4.53;;;18.60;99.90;;;;;;5092831;28;20039;-60
2022/08/09 06:25:23;;;;;;;7.85;4.18;;;18.80;99.90;;;;;;5091976;28;20044;-60
2022/08/09 06:27:49;;;;;;;7.10;4.70;;;18.90;99.90;;;;;;5103661;28;20028;-60
2022/08/09 06:30:15;;;;;;;8.07;4.53;;;19.10;99.90;;;;;;5092295;28;20107;-61
2022/08/09 06:32:41;;;;;;;6.30;4.30;;;19.10;99.90;;;;;;5091326;28;20051;-60
2022/08/09 06:35:08;;;;;;;8.75;4.30;;;19.20;99.90;;;;;;5080711;28;20746;-60
2022/08/09 06:37:33;;;;;;;7.15;4.72;;;19.30;99.90;;;;;;5093478;28;20089;-61
2022/08/09 06:39:59;;;;;;;10.82;4.45;;;19.50;99.50;;;;;;5090766;28;20107;-61
2022/08/09 06:42:31;;;;;;;7.70;4.15;;;19.60;99.10;;;;;;5091328;28;20036;-60
2022/08/09 06:44:58;;;;;;;6.28;3.92;;;19.80;98.20;;;;;;5086287;28;20396;-61
2022/08/09 06:47:23;;;;;;;5.50;4.00;;;20.00;97.90;;;;;;5083444;28;20035;-61
2022/08/09 06:49:49;;;;;;;6.30;3.88;;;20.20;96.90;;;;;;5092632;28;20036;-61
2022/08/09 06:52:16;;;;;;;7.32;4.55;;;20.30;97.00;;;;;;5091821;28;20032;-61
2022/08/09 06:54:42;;;;;;;8.02;3.90;;;20.40;96.70;;;;;;5092445;28;20047;-60
2022/08/09 06:57:08;;;;;;;7.38;4.13;;;20.60;96.00;;;;;;5091075;28;20557;-61
2022/08/09 06:59:33;;;;;;;5.20;3.72;;;20.70;95.10;;;;;;5091556;28;20024;-61
2022/08/09 07:01:59;;;;;;;7.97;4.15;;;20.80;94.90;;;;;;5088632;28;20015;-61
2022/08/09 07:04:25;;;;;;;8.38;4.47;;;20.90;95.00;;;;;;5078250;28;20373;-61
2022/08/09 07:06:50;;;;;;;8.70;4.20;;;21.00;93.70;;;;;;5094900;28;20032;-60
2022/08/09 07:09:16;;;;;;;12.27;3.80;;;21.20;94.00;;;;;;5091376;28;20032;-61
2022/08/09 07:11:42;;;;;;;5.20;3.90;;;21.20;94.00;;;;;;5095003;28;20043;-61
2022/08/09 07:14:07;;;;;;;7.10;3.95;;;21.40;94.20;;;;;;5091657;28;20028;-60
2022/08/09 07:16:33;;;;;;;5.78;4.15;;;21.60;93.60;;;;;;5093353;28;20051;-61
2022/08/09 07:18:59;;;;;;;6.50;3.80;;;21.70;92.80;;;;;;5089053;28;20405;-61
2022/08/09 07:21:24;;;;;;;6.43;3.85;;;21.70;92.30;;;;;;5093217;28;20409;-61
2022/08/09 07:23:50;;;;;;;6.07;4.20;;;21.90;92.20;;;;;;5091325;28;20020;-61
2022/08/09 07:26:16;;;;;;;6.63;4.20;;;22.10;91.10;;;;;;5094163;28;20028;-61
2022/08/09 07:28:42;;;;;;;9.93;4.57;;;22.20;90.80;;;;;;5092097;28;20112;-61
2022/08/09 07:31:07;;;;;;;9.43;3.72;;;22.30;90.20;;;;;;5093804;28;20440;-61
2022/08/09 07:33:33;;;;;;;5.68;3.97;;;22.40;90.00;;;;;;5078646;28;20059;-61
2022/08/09 07:35:59;;;;;;;6.65;4.15;;;22.50;90.00;;;;;;5089979;28;20035;-61
2022/08/09 07:38:25;;;;;;;5.28;3.92;;;22.60;88.00;;;;;;5089987;28;20060;-61
2022/08/09 07:40:53;;;;;;;5.00;3.80;;;22.70;87.70;;;;;;5090615;28;20484;-60
2022/08/09 07:43:18;;;;;;;5.60;4.03;;;22.90;87.00;;;;;;5090874;28;20028;-62
2022/08/09 07:45:44;;;;;;;7.05;3.70;;;23.00;84.40;;;;;;5091483;28;20521;-61
2022/08/09 07:48:11;;;;;;;4.90;3.53;;;23.10;83.40;;;;;;5091642;28;20036;-61
2022/08/09 07:50:39;;;;;;;9.18;3.80;;;23.20;83.30;;;;;;5090839;28;20140;-61
2022/08/09 07:53:06;;;;;;;4.47;3.78;;;23.30;81.10;;;;;;5090875;28;20039;-61
2022/08/09 07:55:36;;;;;;;4.40;3.67;;;23.50;82.40;;;;;;5084824;28;20042;-62
2022/08/09 07:58:02;;;;;;;6.90;3.85;;;23.60;80.70;;;;;;5086793;28;20055;-61
2022/08/09 08:00:28;;;;;;;4.20;3.42;;;23.70;81.00;;;;;;5089937;28;20059;-61
2022/08/09 08:02:58;;;;;;;4.45;3.75;;;23.70;81.30;;;;;;5094791;28;20032;-62
2022/08/09 08:05:24;;;;;;;7.63;3.80;;;23.80;80.30;;;;;;5092749;28;20036;-62
2022/08/09 08:07:50;;;;;;;5.43;3.47;;;23.90;79.70;;;;;;5091202;28;20036;-62
2022/08/09 08:10:17;;;;;;;10.73;3.58;;;24.00;80.10;;;;;;5091590;28;20032;-61
2022/08/09 08:12:43;;;;;;;5.88;3.40;;;24.10;80.40;;;;;;5086785;28;20047;-62
2022/08/09 08:15:17;;;;;;;7.88;3.80;;;24.30;78.90;;;;;;5090761;28;20398;-62
2022/08/09 08:17:44;;;;;;;6.07;3.88;;;24.40;78.80;;;;;;5091527;28;20182;-61
2022/08/09 08:20:11;;;;;;;6.60;3.90;;;24.30;79.60;;;;;;5091117;28;20112;-61
2022/08/09 08:22:36;;;;;;;8.55;3.72;;;24.20;77.50;;;;;;5093850;28;20032;-61
2022/08/09 08:25:02;;;;;;;4.18;3.45;;;24.30;78.50;;;;;;5088892;28;20032;-61
2022/08/09 08:27:29;;;;;;;6.55;3.72;;;24.40;78.70;;;;;;5090186;28;20405;-62
2022/08/09 08:29:54;;;;;;;5.55;3.88;;;24.70;77.10;;;;;;5090901;28;20020;-61
2022/08/09 08:32:21;;;;;;;8.25;3.60;;;24.80;77.20;;;;;;5089907;28;20527;-63
2022/08/09 08:34:47;;;;;;;4.47;3.60;;;25.00;75.60;;;;;;5090358;28;20062;-63
2022/08/09 08:37:13;;;;;;;6.63;4.18;;;25.30;76.40;;;;;;5091037;28;20035;-63
2022/08/09 08:39:38;;;;;;;7.25;3.83;;;25.30;74.50;;;;;;5090439;28;20579;-62
2022/08/09 08:42:05;;;;;;;7.75;3.55;;;25.40;73.60;;;;;;5091786;28;20486;-62
2022/08/09 08:44:35;;;;;;;7.13;3.33;;;25.30;72.80;;;;;;5107929;28;20027;-61
2022/08/09 08:47:01;;;;;;;4.53;3.47;;;25.40;72.20;;;;;;5095121;28;20036;-62
2022/08/09 08:49:31;;;;;;;4.93;3.33;;;25.40;70.30;;;;;;5088520;28;20743;-62
2022/08/09 08:51:57;;;;;;;5.53;3.53;;;25.50;71.20;;;;;;5083207;28;20048;-62
2022/08/09 08:54:24;;;;;;;6.97;3.95;;;25.40;70.50;;;;;;5082955;28;20032;-61
2022/08/09 08:56:49;;;;;;;4.43;3.58;;;25.40;69.30;;;;;;5087513;28;20081;-62
2022/08/09 08:59:15;;;;;;;10.93;3.00;;;25.30;67.80;;;;;;5093369;28;20028;-63
2022/08/09 09:01:43;;;;;;;4.97;3.22;;;25.10;65.70;;;;;;5084058;28;20105;-61
2022/08/09 09:04:11;;;;;;;6.05;3.03;;;25.10;64.40;;;;;;5090009;28;20530;-62
2022/08/09 09:06:40;;;;;;;12.65;2.80;;;25.20;60.90;;;;;;5090801;28;20066;-62
2022/08/09 09:09:06;;;;;;;5.57;3.05;;;25.20;59.70;;;;;;5081867;28;20038;-61
2022/08/09 09:11:35;;;;;;;4.93;2.58;;;25.20;58.40;;;;;;5083539;28;20097;-61
2022/08/09 09:14:08;;;;;;;6.13;3.28;;;25.20;58.20;;;;;;5084609;28;20029;-61
2022/08/09 09:16:34;;;;;;;4.80;2.58;;;25.20;58.80;;;;;;5083764;28;20032;-61
2022/08/09 09:19:08;;;;;;;3.90;2.67;;;25.30;58.90;;;;;;5086406;28;20066;-61
2022/08/09 09:21:34;;;;;;;4.78;3.08;;;25.50;57.30;;;;;;5087354;28;20036;-62
2022/08/09 09:24:05;;;;;;;3.95;2.80;;;25.60;57.50;;;;;;5089406;28;20068;-61
2022/08/09 09:26:33;;;;;;;5.55;2.75;;;25.90;56.60;;;;;;5086001;28;20040;-61
2022/08/09 09:29:00;;;;;;;4.55;2.92;;;25.80;55.50;;;;;;5085859;28;20030;-61
2022/08/09 09:31:27;;;;;;;5.65;3.00;;;25.70;55.70;;;;;;5081782;28;20031;-60
2022/08/09 09:34:10;;;;;;;6.38;3.15;;;25.70;56.20;;;;;;5077636;28;20036;-61
2022/08/09 09:36:40;;;;;;;3.90;2.78;;;25.90;57.70;;;;;;5070469;28;20035;-61
2022/08/09 09:39:09;;;;;;;4.05;2.97;;;26.20;57.00;;;;;;5084713;28;20036;-61
2022/08/09 09:41:35;;;;;;;6.43;3.13;;;26.30;57.40;;;;;;5086619;28;20051;-61
2022/08/09 09:44:06;;;;;;;4.03;2.88;;;26.00;55.70;;;;;;5084659;28;20745;-61
2022/08/09 09:46:33;;;;;;;8.38;3.25;;;26.10;57.20;;;;;;5088828;28;20064;-61
2022/08/09 09:49:10;;;;;;;7.28;3.40;;;26.20;57.30;;;;;;5088525;28;20035;-61
2022/08/09 09:51:37;;;;;;;8.57;3.08;;;26.30;57.40;;;;;;5091164;28;20032;-61
2022/08/09 09:54:17;;;;;;;4.35;2.90;;;26.20;57.30;;;;;;5084406;28;20048;-61
2022/08/09 09:56:51;;;;;;;3.80;2.63;;;26.00;57.70;;;;;;5070576;28;20024;-62
2022/08/09 09:59:31;;;;;;;9.48;3.33;;;26.30;57.10;;;;;;5091743;28;20068;-61
2022/08/09 10:02:01;;;;;;;8.88;3.40;;;26.30;56.70;;;;;;5090622;28;20028;-62
2022/08/09 10:04:26;;;;;;;3.90;3.10;;;26.60;57.80;;;;;;5078148;28;20756;-61
2022/08/09 10:06:52;;;;;;;9.30;3.20;;;26.90;57.70;;;;;;5086505;28;20103;-61
2022/08/09 10:09:18;;;;;;;5.53;3.10;;;27.00;57.30;;;;;;5080479;28;20393;-62
2022/08/09 10:11:44;;;;;;;9.10;2.72;;;26.90;57.90;;;;;;5088626;28;20131;-62
2022/08/09 10:14:24;;;;;;;5.20;3.22;;;27.20;57.00;;;;;;5086881;28;20103;-61
2022/08/09 10:16:50;;;;;;;7.85;3.20;;;27.10;56.40;;;;;;5087905;28;20051;-62
2022/08/09 10:19:16;;;;;;;5.68;3.03;;;27.30;56.50;;;;;;5088869;28;20505;-62
2022/08/09 10:21:48;;;;;;;7.50;3.00;;;27.50;56.60;;;;;;5088497;28;20024;-62
2022/08/09 10:24:19;;;;;;;6.15;2.70;;;27.70;54.30;;;;;;5089294;28;20034;-61
2022/08/09 10:26:46;;;;;;;5.93;2.70;;;27.20;53.40;;;;;;5084812;28;20568;-61
2022/08/09 10:29:12;;;;;;;5.15;2.85;;;27.30;53.90;;;;;;5089145;28;20036;-62
2022/08/09 10:31:39;;;;;;;3.53;2.30;;;27.40;53.40;;;;;;5089544;28;20040;-62
2022/08/09 10:34:06;;;;;;;2.85;2.50;;;27.40;53.30;;;;;;5089202;28;20063;-62
2022/08/09 10:36:32;;;;;;;3.80;2.63;;;27.40;53.10;;;;;;5087932;28;20478;-62
2022/08/09 10:38:58;;;;;;;8.63;2.55;;;27.40;51.60;;;;;;5089273;28;20024;-62
2022/08/09 10:41:24;;;;;;;4.00;2.38;;;27.20;52.10;;;;;;5080824;28;20051;-62
2022/08/09 10:43:50;;;;;;;5.32;2.67;;;27.50;52.30;;;;;;5069068;28;20025;-62
2022/08/09 10:46:19;;;;;;;4.82;2.20;;;27.70;50.90;;;;;;5089682;28;20058;-62
2022/08/09 10:48:59;;;;;;;2.97;2.60;;;28.00;49.80;;;;;;5088962;28;20145;-62
2022/08/09 10:51:38;;;;;;;3.20;2.30;;;28.10;49.50;;;;;;5075116;28;20038;-61
2022/08/09 10:54:09;;;;;;;4.53;2.83;;;28.20;49.90;;;;;;5091370;28;20470;-62
2022/08/09 10:56:37;;;;;;;5.82;2.50;;;28.20;49.10;;;;;;5091542;28;20040;-62
2022/08/09 10:59:21;;;;;;;11.77;2.60;;;28.20;49.70;;;;;;5095166;28;20074;-62
2022/08/09 11:01:48;;;;;;;6.32;2.45;;;28.20;49.10;;;;;;5095835;28;20064;-62
2022/08/09 11:04:22;;;;;;;5.85;2.58;;;28.10;50.30;;;;;;5092176;28;20031;-62
2022/08/09 11:07:09;;;;;;;6.13;2.33;;;27.90;49.60;;;;;;5093884;28;20051;-62
2022/08/09 11:09:38;;;;;;;4.72;2.45;;;27.80;49.90;;;;;;5071180;28;20048;-62
2022/08/09 11:12:17;;;;;;;9.98;2.60;;;27.90;50.40;;;;;;5072110;28;20064;-62
2022/08/09 11:14:55;;;;;;;4.60;2.60;;;27.90;49.10;;;;;;5079681;28;20036;-62
2022/08/09 11:17:21;;;;;;;3.22;2.42;;;27.60;49.00;;;;;;5092037;28;20032;-63
2022/08/09 11:19:53;;;;;;;6.65;2.58;;;27.70;49.10;;;;;;5091652;28;20028;-62
2022/08/09 11:22:38;;;;;;;7.55;2.58;;;28.10;49.50;;;;;;5091176;28;20032;-61
2022/08/09 11:25:06;;;;;;;5.75;2.38;;;28.00;48.00;;;;;;5092265;28;20020;-61
2022/08/09 11:27:37;;;;;;;4.72;2.30;;;28.00;48.10;;;;;;5091452;28;20036;-61
2022/08/09 11:30:26;;;;;;;6.47;2.30;;;28.20;47.50;;;;;;5092198;28;20107;-62
2022/08/09 11:33:09;;;;;;;5.50;2.50;;;28.30;48.50;;;;;;5091193;28;20036;-62
2022/08/09 11:35:43;;;;;;;4.45;2.60;;;28.50;48.20;;;;;;5089961;28;20059;-62
2022/08/09 11:38:17;;;;;;;3.28;2.78;;;28.80;49.00;;;;;;5091618;28;20382;-62
2022/08/09 11:40:43;;;;;;;2.72;2.38;;;28.70;48.20;;;;;;5091209;28;20021;-63
2022/08/09 11:43:14;;;;;;;5.78;2.20;;;29.00;46.80;;;;;;5090441;28;20489;-61
2022/08/09 11:45:59;;;;;;;4.65;2.47;;;29.20;46.90;;;;;;5090864;28;20560;-61
2022/08/09 11:48:28;;;;;;;3.55;2.38;;;29.20;46.10;;;;;;5092032;28;20040;-62
2022/08/09 11:50:57;;;;;;;4.27;2.30;;;28.80;46.30;;;;;;5090037;28;20036;-63
2022/08/09 11:53:24;;;;;;;5.13;2.50;;;28.90;47.60;;;;;;5091616;28;20122;-63
2022/08/09 11:55:58;;;;;;;7.00;2.03;;;29.30;46.40;;;;;;5090685;28;20106;-63
2022/08/09 11:58:27;;;;;;;3.53;2.35;;;29.30;44.70;;;;;;5091654;28;20019;-63
2022/08/09 12:01:00;;;;;;;4.10;2.13;;;29.30;44.90;;;;;;5089457;28;20055;-62
2022/08/09 12:03:27;;;;;;;3.47;2.40;;;29.50;45.70;;;;;;5091545;28;20127;-62
2022/08/09 12:05:57;;;;;;;6.45;2.50;;;29.40;45.30;;;;;;5089987;28;20471;-62
2022/08/09 12:08:24;;;;;;;5.30;2.28;;;29.40;45.90;;;;;;5091003;28;20067;-62
2022/08/09 12:10:55;;;;;;;11.55;2.97;;;29.60;45.20;;;;;;5089185;28;20791;-62
2022/08/09 12:13:37;;;;;;;12.45;2.53;;;29.70;45.10;;;;;;5090983;28;20040;-62
2022/08/09 12:16:10;;;;;;;5.57;2.42;;;29.80;45.80;;;;;;5091025;28;20393;-62
2022/08/09 12:18:39;;;;;;;3.10;2.20;;;29.60;45.10;;;;;;5089982;28;20047;-62
2022/08/09 12:21:07;;;;;;;4.60;2.42;;;29.30;44.90;;;;;;5090347;28;20442;-62
2022/08/09 12:23:39;;;;;;;5.05;2.40;;;29.30;46.00;;;;;;5090156;28;20032;-62
2022/08/09 12:26:05;;;;;;;4.35;2.20;;;29.50;45.20;;;;;;5091114;28;20115;-62
2022/08/09 12:28:31;;;;;;;5.07;2.20;;;29.60;44.70;;;;;;5087949;28;20115;-62
2022/08/09 12:30:57;;;;;;;8.27;2.50;;;29.50;44.40;;;;;;5090424;28;20031;-61
2022/08/09 12:33:26;;;;;;;3.70;2.10;;;29.20;44.00;;;;;;5090464;28;20031;-62
2022/08/09 12:36:04;;;;;;;2.70;2.13;;;29.20;45.30;;;;;;5090047;28;20024;-61
2022/08/09 12:38:32;;;;;;;8.02;2.20;;;29.20;44.30;;;;;;5090394;28;20076;-62
2022/08/09 12:40:58;;;;;;;4.00;2.35;;;29.10;43.70;;;;;;5090590;28;20107;-61
2022/08/09 12:43:26;;;;;;;3.05;2.03;;;29.10;44.80;;;;;;5088092;28;20073;-62
2022/08/09 12:45:57;;;;;;;3.25;1.98;;;29.40;44.50;;;;;;5089230;28;20459;-62
2022/08/09 12:48:25;;;;;;;7.47;2.00;;;29.70;45.10;;;;;;5090496;28;20043;-62
2022/08/09 12:50:51;;;;;;;3.78;2.20;;;30.20;43.00;;;;;;5088941;28;20392;-62
2022/08/09 12:53:32;;;;;;;3.28;2.25;;;30.10;42.90;;;;;;5089743;28;20393;-62